sensor_id;sensor_type;location;lat;lon;timestamp;P1;durP1;ratioP1;P2;durP2;ratioP2
13185;SDS011;6658;53.080;7.428;2023-04-24T00:00:00;0.83;;;0.83;;
13185;SDS011;6658;53.080;7.428;2023-04-24T00:02:38;0.70;;;0.70;;
13185;SDS011;6658;53.080;7.428;2023-04-24T00:05:04;0.60;;;0.60;;
13185;SDS011;6658;53.080;7.428;2023-04-24T00:07:31;0.63;;;0.63;;
13185;SDS011;6658;53.080;7.428;2023-04-24T00:09:57;0.60;;;0.60;;
13185;SDS011;6658;53.080;7.428;2023-04-24T00:12:23;0.50;;;0.40;;
13185;SDS011;6658;53.080;7.428;2023-04-24T00:14:52;0.47;;;0.47;;
13185;SDS011;6658;53.080;7.428;2023-04-24T00:17:18;0.50;;;0.20;;
13185;SDS011;6658;53.080;7.428;2023-04-24T00:19:47;0.40;;;0.40;;
13185;SDS011;6658;53.080;7.428;2023-04-24T00:22:16;0.40;;;0.40;;
13185;SDS011;6658;53.080;7.428;2023-04-24T00:24:42;0.30;;;0.30;;
13185;SDS011;6658;53.080;7.428;2023-04-24T00:27:08;0.37;;;0.37;;
13185;SDS011;6658;53.080;7.428;2023-04-24T00:29:34;0.30;;;0.30;;
13185;SDS011;6658;53.080;7.428;2023-04-24T00:31:59;0.40;;;0.40;;
13185;SDS011;6658;53.080;7.428;2023-04-24T00:34:25;0.40;;;0.40;;
13185;SDS011;6658;53.080;7.428;2023-04-24T00:36:51;0.60;;;0.60;;
13185;SDS011;6658;53.080;7.428;2023-04-24T00:39:20;1.60;;;0.60;;
13185;SDS011;6658;53.080;7.428;2023-04-24T00:41:46;0.53;;;0.53;;
13185;SDS011;6658;53.080;7.428;2023-04-24T00:44:13;1.03;;;0.80;;
13185;SDS011;6658;53.080;7.428;2023-04-24T00:46:39;0.87;;;0.80;;
13185;SDS011;6658;53.080;7.428;2023-04-24T00:49:06;1.03;;;0.90;;
13185;SDS011;6658;53.080;7.428;2023-04-24T00:51:32;0.70;;;0.70;;
13185;SDS011;6658;53.080;7.428;2023-04-24T00:53:58;1.00;;;1.00;;
13185;SDS011;6658;53.080;7.428;2023-04-24T00:56:24;1.00;;;1.00;;
13185;SDS011;6658;53.080;7.428;2023-04-24T00:58:50;1.23;;;1.13;;
13185;SDS011;6658;53.080;7.428;2023-04-24T01:01:16;1.00;;;1.00;;
13185;SDS011;6658;53.080;7.428;2023-04-24T01:03:45;1.37;;;1.10;;
13185;SDS011;6658;53.080;7.428;2023-04-24T01:06:12;1.50;;;1.40;;
13185;SDS011;6658;53.080;7.428;2023-04-24T01:08:39;1.30;;;1.20;;
13185;SDS011;6658;53.080;7.428;2023-04-24T01:11:05;1.37;;;1.27;;
13185;SDS011;6658;53.080;7.428;2023-04-24T01:13:31;1.83;;;1.73;;
13185;SDS011;6658;53.080;7.428;2023-04-24T01:15:58;1.47;;;1.37;;
13185;SDS011;6658;53.080;7.428;2023-04-24T01:18:23;1.70;;;1.60;;
13185;SDS011;6658;53.080;7.428;2023-04-24T01:20:50;1.90;;;1.80;;
13185;SDS011;6658;53.080;7.428;2023-04-24T01:23:17;2.00;;;1.90;;
13185;SDS011;6658;53.080;7.428;2023-04-24T01:25:43;2.50;;;2.30;;
13185;SDS011;6658;53.080;7.428;2023-04-24T01:28:09;2.37;;;2.27;;
13185;SDS011;6658;53.080;7.428;2023-04-24T01:30:35;2.30;;;2.20;;
13185;SDS011;6658;53.080;7.428;2023-04-24T01:33:01;2.40;;;2.30;;
13185;SDS011;6658;53.080;7.428;2023-04-24T01:35:27;2.90;;;2.70;;
13185;SDS011;6658;53.080;7.428;2023-04-24T01:37:53;2.90;;;2.70;;
13185;SDS011;6658;53.080;7.428;2023-04-24T01:40:19;3.37;;;3.17;;
13185;SDS011;6658;53.080;7.428;2023-04-24T01:42:44;2.90;;;2.70;;
13185;SDS011;6658;53.080;7.428;2023-04-24T01:45:11;2.83;;;2.63;;
13185;SDS011;6658;53.080;7.428;2023-04-24T01:47:38;3.40;;;3.20;;
13185;SDS011;6658;53.080;7.428;2023-04-24T01:50:04;3.53;;;3.23;;
13185;SDS011;6658;53.080;7.428;2023-04-24T01:52:30;3.33;;;3.13;;
13185;SDS011;6658;53.080;7.428;2023-04-24T01:55:01;3.37;;;3.17;;
13185;SDS011;6658;53.080;7.428;2023-04-24T01:57:29;3.63;;;3.33;;
13185;SDS011;6658;53.080;7.428;2023-04-24T01:59:55;3.57;;;3.27;;
13185;SDS011;6658;53.080;7.428;2023-04-24T02:02:22;3.90;;;3.50;;
13185;SDS011;6658;53.080;7.428;2023-04-24T02:04:49;3.70;;;3.50;;
13185;SDS011;6658;53.080;7.428;2023-04-24T02:07:15;3.60;;;3.40;;
13185;SDS011;6658;53.080;7.428;2023-04-24T02:09:41;4.10;;;3.80;;
13185;SDS011;6658;53.080;7.428;2023-04-24T02:12:07;3.87;;;3.57;;
13185;SDS011;6658;53.080;7.428;2023-04-24T02:14:33;4.10;;;3.80;;
13185;SDS011;6658;53.080;7.428;2023-04-24T02:16:58;4.10;;;3.80;;
13185;SDS011;6658;53.080;7.428;2023-04-24T02:19:25;4.07;;;3.77;;
13185;SDS011;6658;53.080;7.428;2023-04-24T02:21:51;4.53;;;4.23;;
13185;SDS011;6658;53.080;7.428;2023-04-24T02:24:17;4.17;;;3.87;;
13185;SDS011;6658;53.080;7.428;2023-04-24T02:26:43;4.30;;;4.00;;
13185;SDS011;6658;53.080;7.428;2023-04-24T02:29:08;4.53;;;4.23;;
13185;SDS011;6658;53.080;7.428;2023-04-24T02:31:34;4.93;;;4.53;;
13185;SDS011;6658;53.080;7.428;2023-04-24T02:34:00;4.87;;;4.33;;
13185;SDS011;6658;53.080;7.428;2023-04-24T02:36:26;5.17;;;4.73;;
13185;SDS011;6658;53.080;7.428;2023-04-24T02:38:51;5.20;;;4.80;;
13185;SDS011;6658;53.080;7.428;2023-04-24T02:41:17;5.00;;;4.60;;
13185;SDS011;6658;53.080;7.428;2023-04-24T02:43:43;5.80;;;5.30;;
13185;SDS011;6658;53.080;7.428;2023-04-24T02:46:08;5.73;;;5.23;;
13185;SDS011;6658;53.080;7.428;2023-04-24T02:48:34;5.20;;;4.80;;
13185;SDS011;6658;53.080;7.428;2023-04-24T02:51:00;5.80;;;5.30;;
13185;SDS011;6658;53.080;7.428;2023-04-24T02:53:26;5.50;;;4.97;;
13185;SDS011;6658;53.080;7.428;2023-04-24T02:55:51;5.60;;;5.20;;
13185;SDS011;6658;53.080;7.428;2023-04-24T02:58:17;4.87;;;4.47;;
13185;SDS011;6658;53.080;7.428;2023-04-24T03:00:45;5.70;;;5.20;;
13185;SDS011;6658;53.080;7.428;2023-04-24T03:03:11;5.57;;;5.07;;
13185;SDS011;6658;53.080;7.428;2023-04-24T03:05:37;5.50;;;4.97;;
13185;SDS011;6658;53.080;7.428;2023-04-24T03:08:03;4.80;;;4.40;;
13185;SDS011;6658;53.080;7.428;2023-04-24T03:10:29;5.90;;;5.07;;
13185;SDS011;6658;53.080;7.428;2023-04-24T03:12:55;5.80;;;5.30;;
13185;SDS011;6658;53.080;7.428;2023-04-24T03:15:21;5.43;;;5.03;;
13185;SDS011;6658;53.080;7.428;2023-04-24T03:17:47;5.67;;;5.17;;
13185;SDS011;6658;53.080;7.428;2023-04-24T03:20:13;5.33;;;4.93;;
13185;SDS011;6658;53.080;7.428;2023-04-24T03:22:38;5.50;;;5.10;;
13185;SDS011;6658;53.080;7.428;2023-04-24T03:25:04;5.33;;;4.93;;
13185;SDS011;6658;53.080;7.428;2023-04-24T03:27:30;4.97;;;4.57;;
13185;SDS011;6658;53.080;7.428;2023-04-24T03:29:56;4.70;;;4.30;;
13185;SDS011;6658;53.080;7.428;2023-04-24T03:32:22;5.10;;;4.80;;
13185;SDS011;6658;53.080;7.428;2023-04-24T03:34:48;4.93;;;4.63;;
13185;SDS011;6658;53.080;7.428;2023-04-24T03:37:15;5.10;;;4.60;;
13185;SDS011;6658;53.080;7.428;2023-04-24T03:39:41;4.90;;;4.50;;
13185;SDS011;6658;53.080;7.428;2023-04-24T03:42:07;4.63;;;4.23;;
13185;SDS011;6658;53.080;7.428;2023-04-24T03:44:33;4.47;;;4.17;;
13185;SDS011;6658;53.080;7.428;2023-04-24T03:47:00;4.10;;;3.80;;
13185;SDS011;6658;53.080;7.428;2023-04-24T03:49:26;4.40;;;3.80;;
13185;SDS011;6658;53.080;7.428;2023-04-24T03:51:51;3.97;;;3.67;;
13185;SDS011;6658;53.080;7.428;2023-04-24T03:54:17;3.57;;;3.37;;
13185;SDS011;6658;53.080;7.428;2023-04-24T03:56:44;4.13;;;3.20;;
13185;SDS011;6658;53.080;7.428;2023-04-24T03:59:10;3.20;;;2.93;;
13185;SDS011;6658;53.080;7.428;2023-04-24T04:01:35;3.13;;;2.90;;
13185;SDS011;6658;53.080;7.428;2023-04-24T04:04:05;2.47;;;2.30;;
13185;SDS011;6658;53.080;7.428;2023-04-24T04:06:31;3.03;;;2.83;;
13185;SDS011;6658;53.080;7.428;2023-04-24T04:08:57;3.40;;;3.20;;
13185;SDS011;6658;53.080;7.428;2023-04-24T04:11:24;3.20;;;3.00;;
13185;SDS011;6658;53.080;7.428;2023-04-24T04:13:50;3.07;;;2.87;;
13185;SDS011;6658;53.080;7.428;2023-04-24T04:16:16;3.27;;;3.07;;
13185;SDS011;6658;53.080;7.428;2023-04-24T04:18:42;2.90;;;2.70;;
13185;SDS011;6658;53.080;7.428;2023-04-24T04:21:08;3.60;;;3.30;;
13185;SDS011;6658;53.080;7.428;2023-04-24T04:23:34;2.83;;;2.63;;
13185;SDS011;6658;53.080;7.428;2023-04-24T04:26:00;3.17;;;2.87;;
13185;SDS011;6658;53.080;7.428;2023-04-24T04:28:26;3.27;;;3.07;;
13185;SDS011;6658;53.080;7.428;2023-04-24T04:30:52;3.93;;;3.00;;
13185;SDS011;6658;53.080;7.428;2023-04-24T04:33:22;3.50;;;3.20;;
13185;SDS011;6658;53.080;7.428;2023-04-24T04:35:49;3.20;;;3.00;;
13185;SDS011;6658;53.080;7.428;2023-04-24T04:38:17;3.37;;;3.13;;
13185;SDS011;6658;53.080;7.428;2023-04-24T04:40:43;4.33;;;3.67;;
13185;SDS011;6658;53.080;7.428;2023-04-24T04:43:09;5.50;;;4.20;;
13185;SDS011;6658;53.080;7.428;2023-04-24T04:45:36;4.10;;;3.47;;
13185;SDS011;6658;53.080;7.428;2023-04-24T04:48:04;3.83;;;3.53;;
13185;SDS011;6658;53.080;7.428;2023-04-24T04:50:32;4.23;;;3.37;;
13185;SDS011;6658;53.080;7.428;2023-04-24T04:52:58;3.97;;;3.67;;
13185;SDS011;6658;53.080;7.428;2023-04-24T04:55:23;4.50;;;3.70;;
13185;SDS011;6658;53.080;7.428;2023-04-24T04:57:49;4.20;;;3.77;;
13185;SDS011;6658;53.080;7.428;2023-04-24T05:00:16;4.47;;;4.10;;
13185;SDS011;6658;53.080;7.428;2023-04-24T05:02:41;4.23;;;3.83;;
13185;SDS011;6658;53.080;7.428;2023-04-24T05:05:07;4.60;;;4.20;;
13185;SDS011;6658;53.080;7.428;2023-04-24T05:07:33;4.43;;;4.13;;
13185;SDS011;6658;53.080;7.428;2023-04-24T05:09:59;5.13;;;4.73;;
13185;SDS011;6658;53.080;7.428;2023-04-24T05:12:25;5.23;;;4.73;;
13185;SDS011;6658;53.080;7.428;2023-04-24T05:14:51;4.50;;;4.20;;
13185;SDS011;6658;53.080;7.428;2023-04-24T05:17:16;4.43;;;4.13;;
13185;SDS011;6658;53.080;7.428;2023-04-24T05:19:42;4.70;;;4.30;;
13185;SDS011;6658;53.080;7.428;2023-04-24T05:22:08;4.63;;;4.23;;
13185;SDS011;6658;53.080;7.428;2023-04-24T05:24:34;4.70;;;3.93;;
13185;SDS011;6658;53.080;7.428;2023-04-24T05:27:01;4.97;;;4.47;;
13185;SDS011;6658;53.080;7.428;2023-04-24T05:29:30;4.67;;;4.27;;
13185;SDS011;6658;53.080;7.428;2023-04-24T05:31:57;3.83;;;3.53;;
13185;SDS011;6658;53.080;7.428;2023-04-24T05:34:23;4.17;;;3.87;;
13185;SDS011;6658;53.080;7.428;2023-04-24T05:36:49;4.10;;;3.80;;
13185;SDS011;6658;53.080;7.428;2023-04-24T05:39:15;3.87;;;3.57;;
13185;SDS011;6658;53.080;7.428;2023-04-24T05:41:41;3.60;;;3.30;;
13185;SDS011;6658;53.080;7.428;2023-04-24T05:44:07;3.67;;;3.33;;
13185;SDS011;6658;53.080;7.428;2023-04-24T05:46:33;3.40;;;3.20;;
13185;SDS011;6658;53.080;7.428;2023-04-24T05:48:59;3.20;;;3.00;;
13185;SDS011;6658;53.080;7.428;2023-04-24T05:51:24;3.20;;;3.00;;
13185;SDS011;6658;53.080;7.428;2023-04-24T05:53:51;2.90;;;2.70;;
13185;SDS011;6658;53.080;7.428;2023-04-24T05:56:17;3.03;;;2.83;;
13185;SDS011;6658;53.080;7.428;2023-04-24T05:58:43;3.20;;;2.90;;
13185;SDS011;6658;53.080;7.428;2023-04-24T06:01:10;3.50;;;3.03;;
13185;SDS011;6658;53.080;7.428;2023-04-24T06:03:37;3.10;;;2.90;;
13185;SDS011;6658;53.080;7.428;2023-04-24T06:06:05;3.00;;;2.80;;
13185;SDS011;6658;53.080;7.428;2023-04-24T06:08:31;2.47;;;2.27;;
13185;SDS011;6658;53.080;7.428;2023-04-24T06:10:57;2.30;;;2.20;;
13185;SDS011;6658;53.080;7.428;2023-04-24T06:13:23;2.50;;;2.30;;
13185;SDS011;6658;53.080;7.428;2023-04-24T06:15:49;2.60;;;2.40;;
13185;SDS011;6658;53.080;7.428;2023-04-24T06:18:15;2.27;;;2.13;;
13185;SDS011;6658;53.080;7.428;2023-04-24T06:20:41;2.10;;;2.00;;
13185;SDS011;6658;53.080;7.428;2023-04-24T06:23:07;2.30;;;2.10;;
13185;SDS011;6658;53.080;7.428;2023-04-24T06:25:33;1.80;;;1.70;;
13185;SDS011;6658;53.080;7.428;2023-04-24T06:27:59;1.93;;;1.73;;
13185;SDS011;6658;53.080;7.428;2023-04-24T06:30:25;1.90;;;1.80;;
13185;SDS011;6658;53.080;7.428;2023-04-24T06:32:52;1.60;;;1.50;;
13185;SDS011;6658;53.080;7.428;2023-04-24T06:35:18;1.50;;;1.40;;
13185;SDS011;6658;53.080;7.428;2023-04-24T06:37:45;1.30;;;1.20;;
13185;SDS011;6658;53.080;7.428;2023-04-24T06:40:12;1.53;;;1.43;;
13185;SDS011;6658;53.080;7.428;2023-04-24T06:42:37;1.80;;;1.70;;
13185;SDS011;6658;53.080;7.428;2023-04-24T06:45:03;1.70;;;1.60;;
13185;SDS011;6658;53.080;7.428;2023-04-24T06:47:30;1.27;;;1.20;;
13185;SDS011;6658;53.080;7.428;2023-04-24T06:49:56;1.40;;;1.30;;
13185;SDS011;6658;53.080;7.428;2023-04-24T06:52:22;1.70;;;1.60;;
13185;SDS011;6658;53.080;7.428;2023-04-24T06:54:48;1.87;;;1.53;;
13185;SDS011;6658;53.080;7.428;2023-04-24T06:57:13;1.83;;;1.73;;
13185;SDS011;6658;53.080;7.428;2023-04-24T06:59:41;1.90;;;1.80;;
13185;SDS011;6658;53.080;7.428;2023-04-24T07:02:07;2.27;;;1.53;;
13185;SDS011;6658;53.080;7.428;2023-04-24T07:04:32;1.40;;;1.30;;
13185;SDS011;6658;53.080;7.428;2023-04-24T07:06:58;1.00;;;1.00;;
13185;SDS011;6658;53.080;7.428;2023-04-24T07:09:24;1.20;;;1.10;;
13185;SDS011;6658;53.080;7.428;2023-04-24T07:11:51;0.90;;;0.90;;
13185;SDS011;6658;53.080;7.428;2023-04-24T07:14:18;0.90;;;0.80;;
13185;SDS011;6658;53.080;7.428;2023-04-24T07:16:44;1.20;;;1.10;;
13185;SDS011;6658;53.080;7.428;2023-04-24T07:19:11;2.13;;;0.93;;
13185;SDS011;6658;53.080;7.428;2023-04-24T07:21:40;1.00;;;1.00;;
13185;SDS011;6658;53.080;7.428;2023-04-24T07:24:06;1.10;;;1.00;;
13185;SDS011;6658;53.080;7.428;2023-04-24T07:26:35;0.80;;;0.80;;
13185;SDS011;6658;53.080;7.428;2023-04-24T07:29:01;0.93;;;0.93;;
13185;SDS011;6658;53.080;7.428;2023-04-24T07:31:27;1.20;;;1.10;;
13185;SDS011;6658;53.080;7.428;2023-04-24T07:33:53;1.00;;;1.00;;
13185;SDS011;6658;53.080;7.428;2023-04-24T07:36:19;1.20;;;1.10;;
13185;SDS011;6658;53.080;7.428;2023-04-24T07:38:45;1.00;;;1.00;;
13185;SDS011;6658;53.080;7.428;2023-04-24T07:41:11;1.20;;;1.20;;
13185;SDS011;6658;53.080;7.428;2023-04-24T07:43:38;0.90;;;0.90;;
13185;SDS011;6658;53.080;7.428;2023-04-24T07:46:03;1.00;;;1.00;;
13185;SDS011;6658;53.080;7.428;2023-04-24T07:48:29;1.50;;;1.40;;
13185;SDS011;6658;53.080;7.428;2023-04-24T07:50:55;1.60;;;1.50;;
13185;SDS011;6658;53.080;7.428;2023-04-24T07:53:20;1.77;;;1.67;;
13185;SDS011;6658;53.080;7.428;2023-04-24T07:55:46;2.03;;;1.93;;
13185;SDS011;6658;53.080;7.428;2023-04-24T07:58:12;2.97;;;2.63;;
13185;SDS011;6658;53.080;7.428;2023-04-24T08:00:37;2.63;;;2.40;;
13185;SDS011;6658;53.080;7.428;2023-04-24T08:03:03;2.70;;;2.50;;
13185;SDS011;6658;53.080;7.428;2023-04-24T08:05:29;3.60;;;3.30;;
13185;SDS011;6658;53.080;7.428;2023-04-24T08:07:55;3.90;;;3.60;;
13185;SDS011;6658;53.080;7.428;2023-04-24T08:10:21;4.27;;;3.90;;
13185;SDS011;6658;53.080;7.428;2023-04-24T08:12:47;4.17;;;3.87;;
13185;SDS011;6658;53.080;7.428;2023-04-24T08:15:13;4.50;;;4.10;;
13185;SDS011;6658;53.080;7.428;2023-04-24T08:17:39;4.73;;;4.33;;
13185;SDS011;6658;53.080;7.428;2023-04-24T08:20:05;4.70;;;4.40;;
13185;SDS011;6658;53.080;7.428;2023-04-24T08:22:35;4.50;;;4.10;;
13185;SDS011;6658;53.080;7.428;2023-04-24T08:25:01;5.00;;;4.50;;
13185;SDS011;6658;53.080;7.428;2023-04-24T08:27:27;4.47;;;4.17;;
13185;SDS011;6658;53.080;7.428;2023-04-24T08:29:53;5.60;;;5.10;;
13185;SDS011;6658;53.080;7.428;2023-04-24T08:32:19;5.83;;;5.30;;
13185;SDS011;6658;53.080;7.428;2023-04-24T08:34:45;5.13;;;4.73;;
13185;SDS011;6658;53.080;7.428;2023-04-24T08:37:11;5.50;;;5.00;;
13185;SDS011;6658;53.080;7.428;2023-04-24T08:39:38;5.67;;;5.17;;
13185;SDS011;6658;53.080;7.428;2023-04-24T08:42:04;5.53;;;5.03;;
13185;SDS011;6658;53.080;7.428;2023-04-24T08:44:33;5.43;;;5.00;;
13185;SDS011;6658;53.080;7.428;2023-04-24T08:47:00;5.17;;;4.77;;
13185;SDS011;6658;53.080;7.428;2023-04-24T08:49:27;5.03;;;4.63;;
13185;SDS011;6658;53.080;7.428;2023-04-24T08:51:54;4.90;;;4.47;;
13185;SDS011;6658;53.080;7.428;2023-04-24T08:54:20;4.57;;;4.17;;
13185;SDS011;6658;53.080;7.428;2023-04-24T08:56:47;4.90;;;4.50;;
13185;SDS011;6658;53.080;7.428;2023-04-24T08:59:14;4.40;;;4.00;;
13185;SDS011;6658;53.080;7.428;2023-04-24T09:01:40;4.87;;;4.47;;
13185;SDS011;6658;53.080;7.428;2023-04-24T09:04:07;3.73;;;3.43;;
13185;SDS011;6658;53.080;7.428;2023-04-24T09:06:38;4.37;;;4.07;;
13185;SDS011;6658;53.080;7.428;2023-04-24T09:09:04;4.40;;;4.10;;
13185;SDS011;6658;53.080;7.428;2023-04-24T09:11:30;4.90;;;4.43;;
13185;SDS011;6658;53.080;7.428;2023-04-24T09:13:57;5.27;;;4.50;;
13185;SDS011;6658;53.080;7.428;2023-04-24T09:16:24;4.40;;;4.00;;
13185;SDS011;6658;53.080;7.428;2023-04-24T09:18:51;4.43;;;4.13;;
13185;SDS011;6658;53.080;7.428;2023-04-24T09:21:19;4.57;;;4.23;;
13185;SDS011;6658;53.080;7.428;2023-04-24T09:23:47;3.60;;;3.30;;
13185;SDS011;6658;53.080;7.428;2023-04-24T09:26:30;5.77;;;4.07;;
13185;SDS011;6658;53.080;7.428;2023-04-24T09:29:00;2.57;;;2.10;;
13185;SDS011;6658;53.080;7.428;2023-04-24T09:31:29;1.27;;;1.13;;
13185;SDS011;6658;53.080;7.428;2023-04-24T09:36:28;2.10;;;1.90;;
13185;SDS011;6658;53.080;7.428;2023-04-24T09:39:01;1.73;;;1.63;;
13185;SDS011;6658;53.080;7.428;2023-04-24T09:41:27;2.13;;;1.37;;
13185;SDS011;6658;53.080;7.428;2023-04-24T09:43:56;1.27;;;1.10;;
13185;SDS011;6658;53.080;7.428;2023-04-24T09:46:30;1.50;;;1.23;;
13185;SDS011;6658;53.080;7.428;2023-04-24T09:48:56;1.77;;;0.90;;
13185;SDS011;6658;53.080;7.428;2023-04-24T09:51:35;0.80;;;0.80;;
13185;SDS011;6658;53.080;7.428;2023-04-24T09:54:02;1.00;;;1.00;;
13185;SDS011;6658;53.080;7.428;2023-04-24T09:56:32;5.13;;;2.37;;
13185;SDS011;6658;53.080;7.428;2023-04-24T09:59:05;2.50;;;1.63;;
13185;SDS011;6658;53.080;7.428;2023-04-24T10:01:32;4.57;;;3.40;;
13185;SDS011;6658;53.080;7.428;2023-04-24T10:03:58;4.27;;;3.70;;
13185;SDS011;6658;53.080;7.428;2023-04-24T10:06:34;4.93;;;4.43;;
13185;SDS011;6658;53.080;7.428;2023-04-24T10:09:00;5.17;;;4.67;;
13185;SDS011;6658;53.080;7.428;2023-04-24T10:11:27;7.57;;;5.80;;
13185;SDS011;6658;53.080;7.428;2023-04-24T10:13:54;6.60;;;6.00;;
13185;SDS011;6658;53.080;7.428;2023-04-24T10:16:21;7.80;;;6.23;;
13185;SDS011;6658;53.080;7.428;2023-04-24T10:18:48;9.97;;;7.47;;
13185;SDS011;6658;53.080;7.428;2023-04-24T10:21:14;9.07;;;7.90;;
13185;SDS011;6658;53.080;7.428;2023-04-24T10:23:41;8.83;;;7.30;;
13185;SDS011;6658;53.080;7.428;2023-04-24T10:26:12;9.37;;;7.50;;
13185;SDS011;6658;53.080;7.428;2023-04-24T10:28:45;9.20;;;7.37;;
13185;SDS011;6658;53.080;7.428;2023-04-24T10:31:12;10.40;;;8.73;;
13185;SDS011;6658;53.080;7.428;2023-04-24T10:33:42;13.50;;;8.30;;
13185;SDS011;6658;53.080;7.428;2023-04-24T10:36:11;9.87;;;7.37;;
13185;SDS011;6658;53.080;7.428;2023-04-24T10:38:39;10.17;;;7.83;;
13185;SDS011;6658;53.080;7.428;2023-04-24T10:41:08;9.27;;;8.33;;
13185;SDS011;6658;53.080;7.428;2023-04-24T10:43:39;9.80;;;8.00;;
13185;SDS011;6658;53.080;7.428;2023-04-24T10:46:06;7.17;;;5.93;;
13185;SDS011;6658;53.080;7.428;2023-04-24T10:48:33;10.90;;;8.90;;
13185;SDS011;6658;53.080;7.428;2023-04-24T10:50:59;8.67;;;7.53;;
13185;SDS011;6658;53.080;7.428;2023-04-24T10:53:28;8.87;;;7.97;;
13185;SDS011;6658;53.080;7.428;2023-04-24T10:58:41;7.53;;;6.43;;
13185;SDS011;6658;53.080;7.428;2023-04-24T11:01:28;9.40;;;7.93;;
13185;SDS011;6658;53.080;7.428;2023-04-24T11:04:00;9.20;;;7.70;;
13185;SDS011;6658;53.080;7.428;2023-04-24T11:06:28;6.93;;;6.20;;
13185;SDS011;6658;53.080;7.428;2023-04-24T11:09:05;10.03;;;6.60;;
13185;SDS011;6658;53.080;7.428;2023-04-24T11:11:32;9.07;;;7.77;;
13185;SDS011;6658;53.080;7.428;2023-04-24T11:16:26;7.17;;;6.50;;
13185;SDS011;6658;53.080;7.428;2023-04-24T11:19:05;5.70;;;5.20;;
13185;SDS011;6658;53.080;7.428;2023-04-24T11:21:39;5.17;;;4.63;;
13185;SDS011;6658;53.080;7.428;2023-04-24T11:29:38;7.37;;;4.63;;
13185;SDS011;6658;53.080;7.428;2023-04-24T11:32:18;3.07;;;2.70;;
13185;SDS011;6658;53.080;7.428;2023-04-24T11:35:20;8.27;;;4.53;;
13185;SDS011;6658;53.080;7.428;2023-04-24T11:37:48;5.23;;;4.30;;
13185;SDS011;6658;53.080;7.428;2023-04-24T11:40:16;6.17;;;4.63;;
13185;SDS011;6658;53.080;7.428;2023-04-24T11:42:46;7.43;;;4.20;;
13185;SDS011;6658;53.080;7.428;2023-04-24T11:47:43;9.30;;;4.33;;
13185;SDS011;6658;53.080;7.428;2023-04-24T11:50:11;7.67;;;4.77;;
13185;SDS011;6658;53.080;7.428;2023-04-24T11:52:39;6.27;;;4.97;;
13185;SDS011;6658;53.080;7.428;2023-04-24T11:57:43;7.23;;;4.10;;
13185;SDS011;6658;53.080;7.428;2023-04-24T12:03:09;6.43;;;4.57;;
13185;SDS011;6658;53.080;7.428;2023-04-24T12:05:36;6.77;;;4.63;;
13185;SDS011;6658;53.080;7.428;2023-04-24T12:08:03;9.33;;;4.50;;
13185;SDS011;6658;53.080;7.428;2023-04-24T12:10:30;4.77;;;3.60;;
13185;SDS011;6658;53.080;7.428;2023-04-24T12:12:57;5.40;;;3.60;;
13185;SDS011;6658;53.080;7.428;2023-04-24T12:15:24;5.23;;;3.50;;
13185;SDS011;6658;53.080;7.428;2023-04-24T12:17:51;3.27;;;2.27;;
13185;SDS011;6658;53.080;7.428;2023-04-24T12:20:23;5.77;;;3.17;;
13185;SDS011;6658;53.080;7.428;2023-04-24T12:22:50;5.47;;;2.80;;
13185;SDS011;6658;53.080;7.428;2023-04-24T12:25:23;3.30;;;1.80;;
13185;SDS011;6658;53.080;7.428;2023-04-24T12:28:11;3.10;;;2.20;;
13185;SDS011;6658;53.080;7.428;2023-04-24T12:30:46;3.97;;;2.90;;
13185;SDS011;6658;53.080;7.428;2023-04-24T12:33:17;2.43;;;2.03;;
13185;SDS011;6658;53.080;7.428;2023-04-24T12:35:43;4.90;;;1.97;;
13185;SDS011;6658;53.080;7.428;2023-04-24T12:38:10;3.97;;;2.20;;
13185;SDS011;6658;53.080;7.428;2023-04-24T12:40:39;3.40;;;1.70;;
13185;SDS011;6658;53.080;7.428;2023-04-24T12:43:13;3.53;;;2.20;;
13185;SDS011;6658;53.080;7.428;2023-04-24T12:45:40;2.27;;;1.60;;
13185;SDS011;6658;53.080;7.428;2023-04-24T12:48:05;5.70;;;1.83;;
13185;SDS011;6658;53.080;7.428;2023-04-24T12:50:31;3.27;;;1.70;;
13185;SDS011;6658;53.080;7.428;2023-04-24T12:52:57;4.70;;;2.20;;
13185;SDS011;6658;53.080;7.428;2023-04-24T12:55:22;1.90;;;1.70;;
13185;SDS011;6658;53.080;7.428;2023-04-24T12:57:48;4.17;;;2.03;;
13185;SDS011;6658;53.080;7.428;2023-04-24T13:00:14;3.93;;;1.93;;
13185;SDS011;6658;53.080;7.428;2023-04-24T13:02:40;3.83;;;1.87;;
13185;SDS011;6658;53.080;7.428;2023-04-24T13:05:06;4.20;;;1.50;;
13185;SDS011;6658;53.080;7.428;2023-04-24T13:07:32;3.83;;;1.93;;
13185;SDS011;6658;53.080;7.428;2023-04-24T13:09:57;3.13;;;2.10;;
13185;SDS011;6658;53.080;7.428;2023-04-24T13:12:23;4.13;;;1.70;;
13185;SDS011;6658;53.080;7.428;2023-04-24T13:14:50;3.77;;;1.97;;
13185;SDS011;6658;53.080;7.428;2023-04-24T13:17:16;2.47;;;1.50;;
13185;SDS011;6658;53.080;7.428;2023-04-24T13:19:42;3.17;;;1.40;;
13185;SDS011;6658;53.080;7.428;2023-04-24T13:22:10;3.47;;;1.10;;
13185;SDS011;6658;53.080;7.428;2023-04-24T13:24:36;4.20;;;1.77;;
13185;SDS011;6658;53.080;7.428;2023-04-24T13:27:03;3.33;;;1.40;;
13185;SDS011;6658;53.080;7.428;2023-04-24T13:29:29;2.93;;;1.10;;
13185;SDS011;6658;53.080;7.428;2023-04-24T13:31:55;1.83;;;1.20;;
13185;SDS011;6658;53.080;7.428;2023-04-24T13:34:24;2.20;;;1.20;;
13185;SDS011;6658;53.080;7.428;2023-04-24T13:36:50;1.03;;;0.90;;
13185;SDS011;6658;53.080;7.428;2023-04-24T13:39:20;2.10;;;0.97;;
13185;SDS011;6658;53.080;7.428;2023-04-24T13:41:46;1.43;;;0.83;;
13185;SDS011;6658;53.080;7.428;2023-04-24T13:44:13;1.83;;;1.03;;
13185;SDS011;6658;53.080;7.428;2023-04-24T13:46:40;2.03;;;0.93;;
13185;SDS011;6658;53.080;7.428;2023-04-24T13:49:06;3.07;;;1.40;;
13185;SDS011;6658;53.080;7.428;2023-04-24T13:51:33;1.37;;;0.90;;
13185;SDS011;6658;53.080;7.428;2023-04-24T13:53:58;1.83;;;0.93;;
13185;SDS011;6658;53.080;7.428;2023-04-24T13:56:24;1.63;;;1.10;;
13185;SDS011;6658;53.080;7.428;2023-04-24T13:58:51;2.57;;;0.97;;
13185;SDS011;6658;53.080;7.428;2023-04-24T14:01:19;1.77;;;1.00;;
13185;SDS011;6658;53.080;7.428;2023-04-24T14:03:46;2.40;;;1.23;;
13185;SDS011;6658;53.080;7.428;2023-04-24T14:06:11;1.67;;;1.03;;
13185;SDS011;6658;53.080;7.428;2023-04-24T14:08:37;2.03;;;0.90;;
13185;SDS011;6658;53.080;7.428;2023-04-24T14:11:03;3.20;;;1.10;;
13185;SDS011;6658;53.080;7.428;2023-04-24T14:13:29;1.57;;;1.03;;
13185;SDS011;6658;53.080;7.428;2023-04-24T14:15:55;3.07;;;1.27;;
13185;SDS011;6658;53.080;7.428;2023-04-24T14:18:20;3.93;;;1.23;;
13185;SDS011;6658;53.080;7.428;2023-04-24T14:20:46;2.73;;;1.87;;
13185;SDS011;6658;53.080;7.428;2023-04-24T14:23:12;4.07;;;1.00;;
13185;SDS011;6658;53.080;7.428;2023-04-24T14:25:38;3.00;;;1.00;;
13185;SDS011;6658;53.080;7.428;2023-04-24T14:28:03;2.50;;;0.87;;
13185;SDS011;6658;53.080;7.428;2023-04-24T14:30:31;2.43;;;0.90;;
13185;SDS011;6658;53.080;7.428;2023-04-24T14:32:56;3.07;;;1.20;;
13185;SDS011;6658;53.080;7.428;2023-04-24T14:35:22;1.70;;;0.80;;
13185;SDS011;6658;53.080;7.428;2023-04-24T14:37:48;2.73;;;0.90;;
13185;SDS011;6658;53.080;7.428;2023-04-24T14:40:14;3.50;;;1.10;;
13185;SDS011;6658;53.080;7.428;2023-04-24T14:42:40;1.50;;;0.80;;
13185;SDS011;6658;53.080;7.428;2023-04-24T14:45:05;2.20;;;0.80;;
13185;SDS011;6658;53.080;7.428;2023-04-24T14:47:33;2.23;;;0.90;;
13185;SDS011;6658;53.080;7.428;2023-04-24T14:49:58;2.03;;;1.10;;
13185;SDS011;6658;53.080;7.428;2023-04-24T14:52:24;1.93;;;1.00;;
13185;SDS011;6658;53.080;7.428;2023-04-24T14:54:50;2.73;;;1.10;;
13185;SDS011;6658;53.080;7.428;2023-04-24T14:57:16;2.57;;;0.80;;
13185;SDS011;6658;53.080;7.428;2023-04-24T14:59:41;2.67;;;0.83;;
13185;SDS011;6658;53.080;7.428;2023-04-24T15:02:07;1.93;;;0.80;;
13185;SDS011;6658;53.080;7.428;2023-04-24T15:04:33;0.70;;;0.60;;
13185;SDS011;6658;53.080;7.428;2023-04-24T15:06:59;1.33;;;0.90;;
13185;SDS011;6658;53.080;7.428;2023-04-24T15:09:25;1.57;;;0.53;;
13185;SDS011;6658;53.080;7.428;2023-04-24T15:11:52;2.10;;;0.80;;
13185;SDS011;6658;53.080;7.428;2023-04-24T15:14:18;1.17;;;0.83;;
13185;SDS011;6658;53.080;7.428;2023-04-24T15:16:44;1.80;;;0.70;;
13185;SDS011;6658;53.080;7.428;2023-04-24T15:19:10;2.50;;;1.47;;